createdAt,value
2019-01-14T00:01:54.927Z,3.70
2019-01-14T00:04:56.866Z,3.30
2019-01-14T00:07:58.182Z,3.33
2019-01-14T00:10:58.502Z,3.47
2019-01-14T00:13:58.801Z,3.60
2019-01-14T00:16:59.408Z,3.93
2019-01-14T00:19:59.837Z,3.80
2019-01-14T00:23:03.171Z,3.70
2019-01-14T00:26:05.084Z,3.90
2019-01-14T00:29:05.652Z,3.37
2019-01-14T00:32:06.131Z,3.53
2019-01-14T00:35:07.014Z,3.70
2019-01-14T00:38:07.292Z,4.00
2019-01-14T00:41:08.860Z,3.20
2019-01-14T00:44:10.729Z,3.37
2019-01-14T00:47:11.165Z,3.67
2019-01-14T00:50:15.316Z,3.60
2019-01-14T00:53:18.274Z,3.60
2019-01-14T00:56:18.562Z,3.80
2019-01-14T00:59:18.836Z,3.50
2019-01-14T01:02:19.137Z,3.90
2019-01-14T01:05:19.774Z,3.47
2019-01-14T01:08:20.171Z,3.43
2019-01-14T01:11:20.529Z,3.40
2019-01-14T01:14:20.867Z,3.70
2019-01-14T01:17:21.335Z,3.30
2019-01-14T01:20:22.660Z,3.40
2019-01-14T01:23:25.698Z,3.50
2019-01-14T01:26:25.246Z,3.80
2019-01-14T01:29:25.896Z,3.60
2019-01-14T01:32:29.180Z,3.40
2019-01-14T01:35:29.431Z,3.40
2019-01-14T01:38:30.329Z,3.33
2019-01-14T01:41:33.899Z,3.57
2019-01-14T01:44:34.382Z,3.30
2019-01-14T01:47:35.124Z,3.30
2019-01-14T01:50:35.863Z,3.13
2019-01-14T01:53:36.638Z,3.33
2019-01-14T01:56:36.935Z,3.07
2019-01-14T01:59:37.282Z,3.33
2019-01-14T02:02:43.655Z,3.30
2019-01-14T02:05:44.010Z,3.30
2019-01-14T02:08:44.343Z,4.00
2019-01-14T02:11:44.738Z,3.23
2019-01-14T02:14:45.159Z,3.30
2019-01-14T02:17:45.894Z,3.30
2019-01-14T02:20:46.263Z,2.80
2019-01-14T02:23:48.990Z,3.33
2019-01-14T02:26:49.339Z,3.27
2019-01-14T02:29:49.666Z,3.30
2019-01-14T02:32:50.515Z,3.20
2019-01-14T02:35:50.991Z,3.30
2019-01-14T02:38:51.381Z,3.50
2019-01-14T02:41:51.892Z,3.30
2019-01-14T02:44:52.635Z,2.90
2019-01-14T02:47:52.916Z,3.00
2019-01-14T02:50:56.174Z,2.90
2019-01-14T02:53:57.685Z,3.30
2019-01-14T02:56:58.070Z,3.03
2019-01-14T02:59:58.474Z,3.50
2019-01-14T03:02:58.817Z,3.27
2019-01-14T03:06:00.835Z,3.27
2019-01-14T03:09:01.127Z,2.73
2019-01-14T03:12:03.156Z,3.57
2019-01-14T03:15:03.581Z,3.03
2019-01-14T03:18:04.085Z,3.00
2019-01-14T03:21:04.503Z,2.93
2019-01-14T03:24:07.612Z,2.93
2019-01-14T03:27:07.859Z,3.17
2019-01-14T03:30:10.795Z,3.00
2019-01-14T03:33:11.265Z,2.80
2019-01-14T03:36:11.609Z,2.87
2019-01-14T03:39:11.867Z,3.10
2019-01-14T03:42:12.507Z,3.00
2019-01-14T03:45:13.589Z,2.93
2019-01-14T03:48:17.294Z,2.93
2019-01-14T03:51:17.657Z,2.67
2019-01-14T03:54:18.192Z,3.13
2019-01-14T03:57:18.540Z,2.97
2019-01-14T04:00:18.956Z,3.07
2019-01-14T04:03:19.335Z,2.97
2019-01-14T04:06:19.907Z,3.33
2019-01-14T04:09:20.288Z,2.90
2019-01-14T04:12:20.631Z,3.00
2019-01-14T04:15:21.151Z,2.93
2019-01-14T04:18:21.517Z,2.83
2019-01-14T04:21:21.856Z,2.90
2019-01-14T04:24:25.630Z,4.10
2019-01-14T04:27:25.895Z,3.07
2019-01-14T04:30:28.045Z,2.97
2019-01-14T04:33:28.452Z,3.20
2019-01-14T04:36:28.863Z,3.20
2019-01-14T04:39:29.435Z,2.80
2019-01-14T04:42:29.788Z,3.40
2019-01-14T04:45:30.258Z,2.80
2019-01-14T04:48:33.628Z,3.50
2019-01-14T04:51:34.064Z,3.00
2019-01-14T04:54:34.404Z,3.27
2019-01-14T04:57:35.893Z,3.03
2019-01-14T05:00:36.223Z,3.00
2019-01-14T05:03:36.678Z,2.60
2019-01-14T05:06:36.963Z,3.73
2019-01-14T05:09:37.551Z,2.83
2019-01-14T05:12:37.904Z,3.40
2019-01-14T05:15:41.538Z,3.20
2019-01-14T05:18:41.929Z,3.07
2019-01-14T05:21:42.351Z,3.50
2019-01-14T05:24:42.922Z,3.27
2019-01-14T05:27:43.289Z,3.13
2019-01-14T05:30:45.269Z,2.67
2019-01-14T05:33:45.822Z,3.53
2019-01-14T05:36:46.283Z,3.10
2019-01-14T05:39:46.814Z,3.87
2019-01-14T05:42:47.289Z,3.03
2019-01-14T05:45:47.668Z,2.83
2019-01-14T05:48:48.102Z,3.33
2019-01-14T05:51:48.453Z,2.90
2019-01-14T05:54:48.907Z,2.43
2019-01-14T05:57:49.265Z,3.00
2019-01-14T06:00:50.693Z,2.90
2019-01-14T06:03:51.387Z,3.50
2019-01-14T06:06:51.708Z,2.70
2019-01-14T06:09:52.219Z,2.87
2019-01-14T06:12:53.072Z,5.10
2019-01-14T06:15:53.832Z,3.97
2019-01-14T06:18:54.326Z,3.13
2019-01-14T06:21:55.034Z,3.67
2019-01-14T06:24:55.549Z,2.73
2019-01-14T06:27:56.092Z,3.70
2019-01-14T06:30:56.966Z,3.00
2019-01-14T06:33:57.572Z,3.10
2019-01-14T06:36:58.028Z,3.20
2019-01-14T06:39:58.452Z,3.80
2019-01-14T06:42:59.064Z,3.10
2019-01-14T06:45:59.379Z,2.97
2019-01-14T06:48:59.731Z,3.73
2019-01-14T06:52:00.174Z,3.13
2019-01-14T06:55:00.652Z,4.63
2019-01-14T06:58:04.870Z,3.10
2019-01-14T07:01:05.322Z,4.20
2019-01-14T07:04:07.569Z,3.80
2019-01-14T07:07:07.875Z,3.43
2019-01-14T07:10:10.431Z,3.40
2019-01-14T07:13:10.838Z,3.23
2019-01-14T07:16:11.386Z,2.80
2019-01-14T07:19:11.731Z,2.90
2019-01-14T07:22:13.278Z,3.20
2019-01-14T07:25:13.698Z,2.90
2019-01-14T07:28:13.979Z,3.13
2019-01-14T07:31:14.587Z,3.33
2019-01-14T07:34:15.020Z,3.73
2019-01-14T07:37:15.639Z,3.20
2019-01-14T07:40:16.571Z,2.87
2019-01-14T07:43:17.116Z,3.43
2019-01-14T07:46:20.445Z,3.47
2019-01-14T07:49:20.935Z,3.07
2019-01-14T07:52:21.456Z,3.53
2019-01-14T07:55:21.832Z,3.63
2019-01-14T07:58:22.167Z,3.70
2019-01-14T08:01:22.591Z,2.80
2019-01-14T08:04:23.087Z,3.03
2019-01-14T08:07:23.556Z,4.17
2019-01-14T08:10:23.995Z,3.30
2019-01-14T08:13:26.131Z,2.93
2019-01-14T08:16:26.483Z,3.20
2019-01-14T08:19:26.764Z,3.03
2019-01-14T08:22:27.159Z,3.53
2019-01-14T08:25:27.475Z,2.73
2019-01-14T08:28:27.945Z,4.10
2019-01-14T08:31:28.316Z,2.90
2019-01-14T08:34:28.657Z,2.80
2019-01-14T08:37:29.010Z,4.00
2019-01-14T08:40:29.523Z,3.53
2019-01-14T08:43:32.235Z,3.00
2019-01-14T08:46:33.112Z,2.87
2019-01-14T08:49:33.705Z,4.50
2019-01-14T08:52:34.088Z,3.03
2019-01-14T08:55:34.381Z,2.77
2019-01-14T08:58:34.723Z,2.80
2019-01-14T09:01:35.297Z,4.10
2019-01-14T09:04:36.731Z,2.80
2019-01-14T09:07:37.316Z,3.37
2019-01-14T09:10:37.715Z,2.80
2019-01-14T09:13:38.056Z,3.93
2019-01-14T09:16:38.359Z,2.83
2019-01-14T09:19:38.736Z,3.30
2019-01-14T09:22:40.303Z,3.30
2019-01-14T09:25:40.625Z,3.70
2019-01-14T09:28:42.006Z,3.53
2019-01-14T09:31:42.630Z,3.63
2019-01-14T09:34:43.096Z,3.67
2019-01-14T09:37:45.202Z,4.73
2019-01-14T09:40:45.987Z,5.17
2019-01-14T09:43:46.941Z,3.90
2019-01-14T09:46:47.539Z,2.63
2019-01-14T09:49:48.042Z,2.77
2019-01-14T09:52:48.501Z,5.00
2019-01-14T09:55:48.858Z,3.23
2019-01-14T09:58:49.230Z,5.63
2019-01-14T10:01:49.702Z,2.60
2019-01-14T10:04:50.176Z,3.50
2019-01-14T10:07:50.585Z,3.40
2019-01-14T10:10:50.976Z,2.57
2019-01-14T10:13:51.347Z,3.00
2019-01-14T10:16:54.875Z,5.53
2019-01-14T10:19:55.259Z,4.23
2019-01-14T10:22:58.278Z,4.03
2019-01-14T10:26:01.122Z,5.50
2019-01-14T10:29:02.539Z,2.70
2019-01-14T10:32:02.906Z,3.70
2019-01-14T10:35:08.100Z,3.43
2019-01-14T10:38:08.833Z,2.70
2019-01-14T10:41:09.266Z,4.13
2019-01-14T10:44:10.061Z,2.83
2019-01-14T10:47:17.945Z,2.67
2019-01-14T10:50:18.284Z,2.67
2019-01-14T10:53:18.623Z,5.93
2019-01-14T10:56:21.149Z,3.00
2019-01-14T10:59:21.546Z,2.83
2019-01-14T11:02:21.958Z,5.30
2019-01-14T11:05:25.623Z,5.17
2019-01-14T11:08:26.166Z,2.70
2019-01-14T11:11:26.953Z,3.33
2019-01-14T11:14:27.444Z,3.47
2019-01-14T11:17:27.838Z,2.80
2019-01-14T11:20:31.434Z,2.70
2019-01-14T11:23:31.823Z,3.15
2019-01-14T11:26:32.206Z,2.70
2019-01-14T11:29:52.006Z,2.83
2019-01-14T11:32:52.613Z,2.77
2019-01-14T11:35:52.951Z,3.67
2019-01-14T11:38:53.622Z,4.55
2019-01-14T11:41:53.959Z,3.52
2019-01-14T11:44:55.446Z,3.70
2019-01-14T11:47:55.819Z,2.42
2019-01-14T11:50:56.249Z,4.47
2019-01-14T11:53:56.719Z,2.90
2019-01-14T11:57:00.200Z,2.87
2019-01-14T12:00:03.071Z,4.40
2019-01-14T12:03:03.676Z,3.40
2019-01-14T12:06:05.440Z,2.47
2019-01-14T12:09:12.416Z,4.20
2019-01-14T12:12:13.081Z,2.67
2019-01-14T12:15:19.680Z,3.10
2019-01-14T12:18:20.469Z,2.33
2019-01-14T12:21:20.808Z,3.58
2019-01-14T12:24:23.072Z,2.27
2019-01-14T12:27:23.577Z,2.60
2019-01-14T12:30:30.871Z,2.50
2019-01-14T12:33:31.339Z,2.73
2019-01-14T12:36:31.830Z,2.75
2019-01-14T12:39:32.208Z,3.13
2019-01-14T12:42:35.366Z,2.57
2019-01-14T12:45:35.975Z,3.73
2019-01-14T12:48:36.417Z,2.60
2019-01-14T12:51:36.928Z,2.87
2019-01-14T12:54:37.247Z,2.90
2019-01-14T12:57:37.625Z,3.00
2019-01-14T13:00:38.183Z,2.42
2019-01-14T13:03:39.596Z,2.60
2019-01-14T13:06:40.830Z,2.97
2019-01-14T13:09:41.307Z,2.80
2019-01-14T13:12:41.810Z,2.60
2019-01-14T13:15:42.293Z,2.53
2019-01-14T13:18:42.705Z,4.08
2019-01-14T13:21:43.002Z,4.35
2019-01-14T13:24:46.463Z,2.50
2019-01-14T13:27:46.947Z,3.17
2019-01-14T13:30:47.325Z,3.27
2019-01-14T13:33:47.771Z,2.67
2019-01-14T13:36:48.143Z,2.58
2019-01-14T13:39:52.517Z,4.80
2019-01-14T13:42:50.890Z,5.20
2019-01-14T13:45:52.520Z,3.12
2019-01-14T13:48:54.307Z,4.33
2019-01-14T13:51:54.591Z,4.03
2019-01-14T13:54:54.926Z,3.67
2019-01-14T13:57:59.751Z,3.25
2019-01-14T14:00:57.510Z,2.87
2019-01-14T14:03:58.089Z,4.13
2019-01-14T14:06:58.521Z,2.33
2019-01-14T14:09:58.950Z,3.17
2019-01-14T14:12:59.375Z,3.47
2019-01-14T14:15:59.772Z,3.00
2019-01-14T14:19:00.224Z,3.20
2019-01-14T14:22:00.813Z,2.47
2019-01-14T14:25:01.130Z,2.20
2019-01-14T14:28:03.243Z,2.58
2019-01-14T14:31:03.852Z,2.60
2019-01-14T14:34:04.357Z,3.10
2019-01-14T14:37:04.959Z,2.52
2019-01-14T14:40:07.888Z,2.90
2019-01-14T14:43:09.484Z,2.87
2019-01-14T14:46:12.043Z,3.85
2019-01-14T14:49:14.149Z,2.90
2019-01-14T14:52:14.580Z,2.57
2019-01-14T14:55:14.944Z,2.77
2019-01-14T14:58:15.405Z,2.95
2019-01-14T15:01:15.819Z,2.72
2019-01-14T15:04:16.303Z,2.73
2019-01-14T15:07:16.724Z,3.12
2019-01-14T15:10:18.758Z,3.60
2019-01-14T15:13:20.332Z,2.75
2019-01-14T15:16:20.984Z,4.40
2019-01-14T15:19:21.385Z,2.50
2019-01-14T15:22:21.858Z,4.60
2019-01-14T15:25:22.272Z,3.87
2019-01-14T15:28:23.791Z,2.40
2019-01-14T15:31:24.254Z,2.37
2019-01-14T15:34:24.798Z,3.63
2019-01-14T15:37:25.147Z,3.67
2019-01-14T15:40:28.457Z,2.43
2019-01-14T15:43:30.008Z,2.87
2019-01-14T15:46:32.197Z,2.53
2019-01-14T15:49:33.505Z,2.43
2019-01-14T15:52:36.783Z,2.33
2019-01-14T15:55:36.213Z,2.17
2019-01-14T15:58:36.807Z,2.63
2019-01-14T16:01:40.394Z,4.67
2019-01-14T16:04:40.844Z,2.00
2019-01-14T16:07:41.242Z,4.07
2019-01-14T16:10:44.238Z,3.13
2019-01-14T16:13:45.018Z,2.65
2019-01-14T16:16:45.491Z,2.07
2019-01-14T16:19:45.810Z,2.33
2019-01-14T16:22:48.905Z,3.10
2019-01-14T16:25:49.618Z,2.30
2019-01-14T16:28:49.966Z,2.97
2019-01-14T16:31:50.328Z,2.83
2019-01-14T16:34:50.778Z,2.43
2019-01-14T16:37:51.220Z,2.00
2019-01-14T16:40:51.623Z,2.50
2019-01-14T16:43:52.018Z,2.03
2019-01-14T16:46:52.453Z,2.50
2019-01-14T16:49:56.239Z,2.20
2019-01-14T16:52:56.605Z,5.28
2019-01-14T16:55:59.793Z,9.13
2019-01-14T16:59:00.311Z,7.80
2019-01-14T17:02:02.936Z,6.50
2019-01-14T17:05:03.824Z,6.00
2019-01-14T17:08:04.685Z,6.60
2019-01-14T17:11:05.872Z,7.12
2019-01-14T17:14:06.373Z,6.27
2019-01-14T17:17:08.315Z,7.93
2019-01-14T17:20:15.222Z,8.00
2019-01-14T17:23:15.732Z,7.70
2019-01-14T17:26:16.366Z,7.40
2019-01-14T17:29:17.338Z,7.83
2019-01-14T17:32:18.846Z,6.13
2019-01-14T17:35:20.761Z,5.30
2019-01-14T17:38:21.342Z,7.77
2019-01-14T17:41:21.757Z,6.97
2019-01-14T17:44:23.310Z,6.57
2019-01-14T17:47:23.759Z,8.13
2019-01-14T17:50:24.361Z,6.27
2019-01-14T17:53:24.871Z,6.60
2019-01-14T17:56:25.803Z,6.70
2019-01-14T17:59:26.370Z,6.43
2019-01-14T18:02:26.760Z,6.50
2019-01-14T18:05:27.220Z,6.53
2019-01-14T18:08:27.747Z,7.17
2019-01-14T18:11:28.146Z,6.73
2019-01-14T18:14:28.577Z,5.37
2019-01-14T18:17:28.973Z,4.67
2019-01-14T18:20:29.458Z,6.53
2019-01-14T18:23:29.888Z,6.00
2019-01-14T18:26:33.080Z,5.10
2019-01-14T18:29:33.588Z,5.00
2019-01-14T18:32:34.183Z,6.07
2019-01-14T18:35:34.529Z,5.83
2019-01-14T18:38:35.003Z,7.60
2019-01-14T18:41:35.399Z,5.90
2019-01-14T18:44:37.570Z,5.87
2019-01-14T18:47:41.157Z,6.33
2019-01-14T18:50:41.658Z,5.57
2019-01-14T18:53:42.283Z,4.57
2019-01-14T18:56:43.107Z,5.37
2019-01-14T18:59:47.007Z,4.30
2019-01-14T19:02:47.498Z,6.37
2019-01-14T19:05:48.027Z,4.77
2019-01-14T19:08:48.898Z,5.37
2019-01-14T19:11:49.394Z,4.90
2019-01-14T19:14:49.936Z,6.03
2019-01-14T19:17:53.259Z,5.60
2019-01-14T19:20:54.941Z,6.07
2019-01-14T19:23:58.219Z,5.33
2019-01-14T19:26:58.775Z,4.33
2019-01-14T19:29:59.155Z,4.47
2019-01-14T19:32:59.533Z,4.93
2019-01-14T19:35:59.907Z,4.80
2019-01-14T19:39:00.555Z,7.17
2019-01-14T19:42:01.518Z,5.33
2019-01-14T19:45:02.164Z,5.53
2019-01-14T19:48:02.829Z,7.07
2019-01-14T19:51:03.549Z,6.03
2019-01-14T19:54:06.149Z,5.10
2019-01-14T19:57:06.633Z,6.73
2019-01-14T20:00:09.832Z,5.47
2019-01-14T20:03:10.336Z,4.77
2019-01-14T20:06:10.939Z,4.87
2019-01-14T20:09:11.668Z,6.90
2019-01-14T20:12:12.215Z,7.87
2019-01-14T20:15:14.844Z,6.60
2019-01-14T20:18:15.441Z,5.93
2019-01-14T20:21:15.935Z,5.97
2019-01-14T20:24:16.437Z,5.67
2019-01-14T20:27:16.973Z,6.50
2019-01-14T20:30:22.979Z,6.20
2019-01-14T20:33:25.133Z,8.93
2019-01-14T20:36:25.828Z,6.80
2019-01-14T20:39:29.210Z,7.93
2019-01-14T20:42:29.732Z,6.50
2019-01-14T20:45:31.817Z,7.70
2019-01-14T20:48:32.411Z,5.87
2019-01-14T20:51:32.841Z,6.53
2019-01-14T20:54:33.271Z,8.53
2019-01-14T20:57:33.804Z,7.67
2019-01-14T21:00:34.466Z,8.03
2019-01-14T21:03:34.944Z,8.00
2019-01-14T21:06:35.427Z,6.80
2019-01-14T21:09:37.886Z,8.57
2019-01-14T21:12:38.381Z,6.73
2019-01-14T21:15:38.849Z,6.80
2019-01-14T21:18:39.399Z,6.40
2019-01-14T21:21:39.922Z,6.43
2019-01-14T21:24:40.502Z,4.93
2019-01-14T21:27:41.039Z,6.13
2019-01-14T21:30:41.474Z,9.27
2019-01-14T21:33:41.890Z,6.30
2019-01-14T21:36:42.414Z,6.80
2019-01-14T21:39:45.714Z,6.03
2019-01-14T21:42:46.327Z,7.70
2019-01-14T21:45:46.773Z,7.70
2019-01-14T21:48:47.212Z,8.17
2019-01-14T21:51:47.565Z,6.90
2019-01-14T21:54:47.899Z,6.33
2019-01-14T21:57:51.135Z,7.43
2019-01-14T22:00:51.545Z,6.67
2019-01-14T22:03:52.237Z,6.40
2019-01-14T22:06:52.680Z,6.17
2019-01-14T22:09:55.075Z,6.47
2019-01-14T22:12:56.998Z,5.37
2019-01-14T22:15:57.403Z,5.93
2019-01-14T22:18:57.902Z,6.47
2019-01-14T22:22:01.388Z,6.43
2019-01-14T22:25:02.889Z,6.60
2019-01-14T22:28:03.449Z,5.37
2019-01-14T22:31:05.014Z,6.67
2019-01-14T22:34:05.426Z,5.80
2019-01-14T22:37:05.813Z,5.57
2019-01-14T22:40:07.811Z,6.80
2019-01-14T22:43:08.336Z,5.03
2019-01-14T22:46:08.898Z,5.70
2019-01-14T22:49:09.222Z,4.53
2019-01-14T22:52:09.713Z,6.10
2019-01-14T22:55:10.272Z,7.60
2019-01-14T22:58:10.758Z,5.07
2019-01-14T23:01:51.603Z,5.37
2019-01-14T23:04:52.290Z,5.87
2019-01-14T23:07:52.756Z,4.90
2019-01-14T23:10:53.138Z,5.57
2019-01-14T23:13:53.484Z,5.80
2019-01-14T23:16:53.937Z,5.33
2019-01-14T23:19:55.403Z,4.07
2019-01-14T23:22:55.840Z,3.77
2019-01-14T23:25:56.271Z,4.33
2019-01-14T23:28:56.740Z,4.53
2019-01-14T23:31:57.120Z,4.83
2019-01-14T23:34:57.525Z,6.10
2019-01-14T23:37:57.863Z,6.63
2019-01-14T23:40:58.391Z,4.97
2019-01-14T23:43:58.845Z,5.80
2019-01-14T23:46:59.298Z,4.93
2019-01-14T23:49:59.644Z,4.40
2019-01-14T23:53:00.275Z,3.57
2019-01-14T23:56:00.701Z,4.17
2019-01-14T23:59:01.110Z,4.87
